Date,TemperatureHighF,TemperatureAvgF,TemperatureLowF,DewpointHighF,DewpointAvgF,DewpointLowF,HumidityHigh,HumidityAvg,HumidityLow,PressureMaxIn,PressureMinIn,WindSpeedMaxMPH,WindSpeedAvgMPH,GustSpeedMaxMPH,PrecipitationSumIn
2013-1-1,45,36,32,38,30,23,87,81,68,29.68,29.59,12,0,12,0.08
2013-1-2,34,30,25,23,19,14,74,63,52,29.80,29.68,12,0,12,0.00
2013-1-3,37,30,23,22,17,12,72,57,51,29.91,29.74,18,1,18,0.00
2013-1-4,38,35,32,24,22,20,68,58,52,29.94,29.88,22,3,22,0.00
2013-1-5,44,36,28,29,24,19,76,62,50,29.91,29.74,14,0,14,0.00
2013-1-6,42,38,32,32,26,19,68,60,55,29.94,29.65,22,4,22,0.00
2013-1-7,40,32,24,25,20,15,75,61,53,30.03,29.80,7,0,7,0.00
2013-1-8,50,38,29,34,27,20,77,64,50,29.88,29.80,15,0,15,0.00
2013-1-9,56,48,40,47,39,30,90,73,56,30.09,29.83,15,0,15,0.00
2013-1-10,49,45,40,47,40,33,92,82,69,30.09,29.62,4,0,4,0.12
2013-1-11,64,58,47,56,51,45,97,81,57,29.65,29.47,20,1,20,0.67
2013-1-12,66,62,57,64,60,51,95,91,81,29.65,29.44,12,0,12,0.00
2013-1-13,67,54,35,62,50,29,93,87,79,29.83,29.41,30,3,30,2.01
2013-1-14,35,30,26,29,20,18,78,68,61,30.09,29.83,17,1,17,0.00
2013-1-15,33,29,24,29,22,18,87,76,64,30.00,29.77,14,0,14,0.00
2013-1-16,36,34,32,30,29,28,87,80,75,29.83,29.71,5,0,5,0.00
2013-1-17,44,37,32,32,26,20,77,66,51,30.12,29.80,20,1,20,0.16
2013-1-18,43,35,26,25,20,14,64,55,49,30.24,30.00,10,0,10,0.00
2013-1-19,54,46,38,31,27,24,56,48,40,30.00,29.71,26,3,26,0.00
2013-1-20,48,40,32,32,18,11,57,42,31,29.97,29.77,21,2,21,0.00
2013-1-21,32,25,17,11,5,-1,44,41,36,30.06,29.88,24,6,24,0.00
2013-1-22,23,17,12,1,-2,-6,44,41,35,30.18,30.03,18,4,18,0.00
2013-1-23,37,27,18,16,8,0,47,43,41,30.12,29.85,15,0,15,0.00
2013-1-24,32,26,21,15,4,-10,50,38,18,30.33,29.91,25,2,25,0.00
2013-1-25,31,28,27,21,14,2,71,56,33,30.15,29.85,12,0,12,0.00
2013-1-26,38,30,25,21,18,14,75,61,46,30.18,29.94,12,0,12,0.00
2013-1-27,43,36,27,39,24,13,85,62,51,30.18,29.91,4,0,4,0.08
2013-1-28,56,51,43,52,46,39,94,86,73,29.94,29.85,18,1,18,0.20
2013-1-29,66,60,55,60,55,50,90,84,80,29.85,29.41,19,1,19,0.00
2013-1-30,68,54,34,61,47,21,88,77,57,29.53,29.18,30,6,30,0.91
2013-1-31,36,32,19,26,18,5,77,56,49,29.94,29.50,34,11,34,0.00